createdAt,value
2022-09-21T00:01:08.952Z,1.73
2022-09-21T00:03:37.197Z,1.70
2022-09-21T00:06:08.795Z,1.85
2022-09-21T00:08:36.050Z,1.95
2022-09-21T00:11:03.955Z,1.98
2022-09-21T00:13:32.771Z,1.75
2022-09-21T00:15:59.738Z,2.00
2022-09-21T00:18:26.554Z,1.98
2022-09-21T00:20:53.167Z,1.70
2022-09-21T00:23:20.209Z,1.70
2022-09-21T00:25:46.993Z,1.83
2022-09-21T00:28:13.585Z,1.90
2022-09-21T00:30:40.254Z,2.10
2022-09-21T00:33:07.043Z,1.90
2022-09-21T00:35:33.760Z,1.65
2022-09-21T00:38:02.551Z,1.80
2022-09-21T00:40:30.311Z,2.05
2022-09-21T00:43:16.939Z,1.70
2022-09-21T00:45:47.163Z,2.03
2022-09-21T00:48:15.427Z,1.70
2022-09-21T00:50:49.312Z,1.90
2022-09-21T00:53:16.481Z,1.95
2022-09-21T00:55:49.291Z,1.80
2022-09-21T00:58:24.235Z,1.60
2022-09-21T01:00:50.872Z,1.65
2022-09-21T01:03:17.486Z,1.45
2022-09-21T01:05:44.203Z,1.80
2022-09-21T01:08:13.794Z,1.60
2022-09-21T01:10:52.844Z,2.05
2022-09-21T01:13:47.952Z,1.95
2022-09-21T01:16:28.176Z,1.60
2022-09-21T01:19:10.710Z,1.70
2022-09-21T01:21:54.674Z,1.85
2022-09-21T01:24:42.935Z,1.70
2022-09-21T01:27:15.153Z,1.63
2022-09-21T01:29:52.110Z,2.45
2022-09-21T01:32:22.507Z,1.73
2022-09-21T01:34:55.566Z,1.77
2022-09-21T01:37:34.098Z,1.83
2022-09-21T01:40:04.890Z,1.67
2022-09-21T01:42:34.004Z,1.77
2022-09-21T01:45:04.088Z,1.95
2022-09-21T01:47:31.589Z,2.10
2022-09-21T01:50:01.951Z,1.60
2022-09-21T01:52:42.155Z,1.83
2022-09-21T01:55:42.612Z,1.90
2022-09-21T01:58:19.252Z,1.70
2022-09-21T02:00:48.980Z,1.50
2022-09-21T02:03:30.200Z,1.70
2022-09-21T02:05:58.525Z,1.98
2022-09-21T02:08:28.731Z,1.90
2022-09-21T02:10:55.783Z,1.70
2022-09-21T02:13:27.660Z,2.20
2022-09-21T02:16:14.396Z,2.15
2022-09-21T02:18:57.791Z,1.90
2022-09-21T02:21:41.310Z,1.75
2022-09-21T02:26:48.019Z,1.77
2022-09-21T02:29:23.851Z,1.70
2022-09-21T02:32:05.271Z,1.65
2022-09-21T02:34:58.355Z,1.70
2022-09-21T02:37:35.362Z,1.73
2022-09-21T02:40:16.553Z,1.70
2022-09-21T02:42:46.451Z,2.00
2022-09-21T02:45:24.554Z,2.10
2022-09-21T02:48:08.518Z,2.00
2022-09-21T02:50:59.311Z,1.90
2022-09-21T02:53:29.601Z,2.05
2022-09-21T02:55:59.273Z,2.17
2022-09-21T02:58:28.431Z,5.82
2022-09-21T03:00:57.228Z,5.80
2022-09-21T03:03:24.976Z,3.80
2022-09-21T03:05:54.020Z,12.82
2022-09-21T03:08:21.603Z,4.70
2022-09-21T03:10:50.831Z,12.63
2022-09-21T03:13:18.935Z,3.58
2022-09-21T03:15:46.671Z,6.47
2022-09-21T03:18:13.790Z,4.85
2022-09-21T03:20:46.152Z,3.60
2022-09-21T03:23:13.650Z,3.38
2022-09-21T03:25:40.423Z,2.75
2022-09-21T03:28:07.043Z,2.08
2022-09-21T03:30:33.712Z,2.00
2022-09-21T03:33:00.279Z,6.80
2022-09-21T03:35:26.911Z,5.25
2022-09-21T03:37:55.355Z,10.02
2022-09-21T03:40:22.497Z,13.43
2022-09-21T03:42:49.395Z,2.70
2022-09-21T03:45:16.505Z,2.30
2022-09-21T03:47:43.378Z,2.35
2022-09-21T03:50:11.075Z,2.20
2022-09-21T03:52:38.600Z,2.10
2022-09-21T03:55:07.552Z,1.85
2022-09-21T03:57:35.235Z,1.90
2022-09-21T04:00:07.470Z,2.10
2022-09-21T04:02:34.422Z,2.47
2022-09-21T04:05:01.273Z,2.40
2022-09-21T04:07:33.934Z,2.70
2022-09-21T04:10:06.102Z,2.33
2022-09-21T04:12:34.673Z,2.22
2022-09-21T04:15:01.756Z,2.63
2022-09-21T04:17:29.457Z,2.17
2022-09-21T04:19:56.019Z,2.58
2022-09-21T04:22:24.907Z,2.67
2022-09-21T04:24:51.956Z,2.22
2022-09-21T04:27:18.925Z,2.60
2022-09-21T04:29:45.715Z,2.67
2022-09-21T04:32:12.499Z,2.88
2022-09-21T04:34:39.538Z,2.58
2022-09-21T04:37:09.740Z,2.65
2022-09-21T04:39:36.591Z,2.38
2022-09-21T04:42:03.334Z,2.20
2022-09-21T04:44:31.022Z,2.33
2022-09-21T04:46:58.355Z,2.40
2022-09-21T04:49:25.152Z,2.70
2022-09-21T04:51:52.165Z,2.97
2022-09-21T04:54:18.878Z,3.42
2022-09-21T04:56:45.511Z,2.97
2022-09-21T04:59:12.146Z,2.85
2022-09-21T05:01:39.139Z,3.15
2022-09-21T05:04:05.851Z,2.90
2022-09-21T05:06:33.800Z,2.92
2022-09-21T05:09:19.626Z,2.88
2022-09-21T05:11:46.561Z,2.95
2022-09-21T05:14:13.313Z,3.20
2022-09-21T05:16:40.110Z,3.53
2022-09-21T05:19:07.119Z,2.97
2022-09-21T05:21:33.830Z,3.17
2022-09-21T05:24:00.466Z,2.83
2022-09-21T05:26:27.035Z,2.90
2022-09-21T05:28:53.898Z,2.75
2022-09-21T05:31:42.375Z,3.17
2022-09-21T05:34:50.659Z,2.63
2022-09-21T05:37:44.460Z,2.83
2022-09-21T05:42:39.243Z,2.60
2022-09-21T05:45:06.950Z,2.65
2022-09-21T05:47:51.540Z,2.78
2022-09-21T05:50:24.426Z,2.90
2022-09-21T05:52:56.854Z,3.20
2022-09-21T05:55:41.349Z,3.53
2022-09-21T05:58:35.551Z,3.30
2022-09-21T06:01:17.089Z,3.13
2022-09-21T06:03:44.079Z,3.00
2022-09-21T06:06:10.743Z,2.92
2022-09-21T06:08:37.323Z,2.75
2022-09-21T06:11:04.051Z,2.45
2022-09-21T06:13:30.632Z,2.95
2022-09-21T06:15:58.530Z,3.00
2022-09-21T06:18:25.164Z,2.80
2022-09-21T06:20:51.766Z,2.63
2022-09-21T06:23:18.663Z,2.90
2022-09-21T06:25:45.327Z,2.50
2022-09-21T06:28:13.112Z,2.83
2022-09-21T06:30:42.305Z,2.50
2022-09-21T06:33:09.579Z,2.10
2022-09-21T06:35:37.154Z,2.38
2022-09-21T06:38:06.707Z,2.97
2022-09-21T06:40:35.861Z,2.50
2022-09-21T06:43:06.329Z,2.83
2022-09-21T06:45:33.020Z,2.70
2022-09-21T06:47:59.836Z,2.55
2022-09-21T06:50:26.787Z,2.25
2022-09-21T06:52:54.220Z,2.45
2022-09-21T06:55:20.890Z,2.40
2022-09-21T06:57:47.481Z,2.67
2022-09-21T07:00:14.776Z,2.70
2022-09-21T07:02:45.535Z,2.50
2022-09-21T07:05:12.969Z,2.30
2022-09-21T07:07:40.478Z,2.42
2022-09-21T07:10:14.343Z,2.58
2022-09-21T07:12:43.230Z,2.10
2022-09-21T07:15:10.511Z,2.30
2022-09-21T07:17:39.369Z,2.03
2022-09-21T07:20:09.044Z,2.50
2022-09-21T07:22:36.530Z,2.50
2022-09-21T07:25:04.819Z,1.90
2022-09-21T07:27:32.974Z,2.25
2022-09-21T07:29:59.598Z,2.00
2022-09-21T07:32:26.246Z,1.80
2022-09-21T07:34:57.118Z,2.00
2022-09-21T07:37:25.102Z,1.52
2022-09-21T07:39:53.150Z,1.80
2022-09-21T07:42:22.651Z,1.80
2022-09-21T07:44:49.455Z,2.47
2022-09-21T07:47:17.148Z,1.70
2022-09-21T07:49:43.820Z,1.98
2022-09-21T07:52:11.235Z,1.80
2022-09-21T07:54:38.300Z,1.90
2022-09-21T07:57:23.719Z,1.80
2022-09-21T07:59:50.579Z,1.63
2022-09-21T08:02:17.195Z,1.90
2022-09-21T08:04:43.935Z,1.80
2022-09-21T08:07:10.535Z,1.63
2022-09-21T08:09:37.186Z,1.63
2022-09-21T08:12:03.918Z,1.50
2022-09-21T08:14:30.558Z,1.48
2022-09-21T08:16:57.136Z,1.60
2022-09-21T08:19:25.932Z,1.67
2022-09-21T08:21:57.203Z,1.33
2022-09-21T08:24:26.850Z,1.27
2022-09-21T08:26:55.886Z,1.33
2022-09-21T08:29:24.096Z,1.48
2022-09-21T08:31:51.004Z,1.55
2022-09-21T08:34:17.971Z,1.77
2022-09-21T08:36:44.557Z,1.63
2022-09-21T08:39:11.183Z,1.65
2022-09-21T08:41:59.633Z,1.30
2022-09-21T08:44:28.778Z,1.45
2022-09-21T08:47:11.586Z,1.73
2022-09-21T08:49:41.111Z,1.60
2022-09-21T08:52:16.252Z,1.63
2022-09-21T08:54:55.475Z,1.90
2022-09-21T08:57:24.663Z,1.52
2022-09-21T08:59:51.863Z,1.65
2022-09-21T09:02:30.581Z,1.60
2022-09-21T09:05:24.928Z,1.50
2022-09-21T09:07:57.539Z,2.00
2022-09-21T09:10:39.202Z,2.25
2022-09-21T09:13:38.139Z,1.80
2022-09-21T09:16:24.969Z,1.60
2022-09-21T09:19:28.847Z,1.40
2022-09-21T09:21:56.615Z,1.30
2022-09-21T09:24:55.195Z,1.40
2022-09-21T09:27:30.304Z,1.30
2022-09-21T09:30:03.162Z,1.35
2022-09-21T09:32:39.267Z,1.23
2022-09-21T09:35:30.381Z,1.30
2022-09-21T09:38:35.655Z,1.13
2022-09-21T09:41:32.971Z,1.20
2022-09-21T09:44:30.455Z,1.20
2022-09-21T09:47:02.418Z,0.90
2022-09-21T09:49:34.348Z,1.15
2022-09-21T09:52:01.572Z,1.58
2022-09-21T09:54:33.651Z,1.02
2022-09-21T09:57:03.610Z,1.10
2022-09-21T09:59:53.408Z,1.50
2022-09-21T10:02:23.765Z,1.17
2022-09-21T10:05:06.221Z,1.45
2022-09-21T10:07:43.126Z,1.10
2022-09-21T10:10:27.147Z,1.30
2022-09-21T10:12:53.998Z,0.90
2022-09-21T10:15:24.134Z,1.25
2022-09-21T10:18:18.880Z,1.45
2022-09-21T10:21:05.138Z,1.20
2022-09-21T10:23:33.239Z,1.17
2022-09-21T10:26:08.042Z,1.20
2022-09-21T10:28:38.507Z,1.10
2022-09-21T10:31:18.145Z,1.40
2022-09-21T10:33:54.123Z,0.98
2022-09-21T10:36:28.491Z,1.05
2022-09-21T10:38:55.206Z,1.30
2022-09-21T10:41:22.495Z,0.98
2022-09-21T10:43:50.882Z,1.13
2022-09-21T10:46:18.075Z,1.27
2022-09-21T10:48:46.495Z,1.00
2022-09-21T10:51:29.239Z,1.40
2022-09-21T10:53:56.559Z,1.35
2022-09-21T10:56:23.799Z,1.20
2022-09-21T10:59:29.069Z,1.20
2022-09-21T11:01:58.732Z,1.70
2022-09-21T11:04:41.808Z,1.60
2022-09-21T11:07:18.148Z,1.50
2022-09-21T11:09:53.487Z,1.40
2022-09-21T11:12:25.903Z,1.40
2022-09-21T11:15:14.317Z,1.20
2022-09-21T11:17:44.779Z,1.10
2022-09-21T11:20:37.092Z,0.90
2022-09-21T11:23:08.843Z,0.90
2022-09-21T11:25:49.663Z,1.15
2022-09-21T11:28:26.097Z,1.17
2022-09-21T11:31:37.101Z,1.05
2022-09-21T11:34:41.244Z,0.90
2022-09-21T11:37:29.064Z,0.93
2022-09-21T11:40:23.951Z,0.90
2022-09-21T11:42:59.426Z,0.93
2022-09-21T11:46:15.947Z,0.90
2022-09-21T11:48:53.059Z,1.30
2022-09-21T11:51:38.439Z,0.93
2022-09-21T11:54:15.242Z,1.40
2022-09-21T11:56:46.526Z,0.77
2022-09-21T11:59:26.930Z,1.20
2022-09-21T12:02:25.784Z,1.00
2022-09-21T12:05:06.994Z,0.73
2022-09-21T12:07:39.547Z,1.50
2022-09-21T12:10:15.192Z,1.60
2022-09-21T12:12:49.621Z,1.20
2022-09-21T12:15:46.205Z,1.25
2022-09-21T12:18:45.367Z,0.68
2022-09-21T12:21:22.107Z,0.60
2022-09-21T12:23:51.463Z,0.85
2022-09-21T12:26:22.463Z,0.73
2022-09-21T12:29:00.758Z,1.02
2022-09-21T12:31:38.338Z,0.80
2022-09-21T12:34:18.553Z,1.00
2022-09-21T12:37:11.115Z,0.90
2022-09-21T12:39:44.522Z,1.10
2022-09-21T12:42:50.995Z,2.30
2022-09-21T12:45:24.145Z,1.20
2022-09-21T12:50:34.850Z,1.17
2022-09-21T12:53:02.040Z,0.85
2022-09-21T12:55:31.339Z,1.20
2022-09-21T12:58:15.169Z,1.00
2022-09-21T13:00:58.253Z,1.10
2022-09-21T13:03:40.568Z,0.97
2022-09-21T13:06:30.736Z,1.30
2022-09-21T13:09:01.509Z,1.20
2022-09-21T13:11:28.528Z,1.30
2022-09-21T13:14:02.174Z,1.10
2022-09-21T13:16:35.000Z,0.90
2022-09-21T13:19:04.516Z,1.20
2022-09-21T13:21:33.457Z,1.00
2022-09-21T13:24:03.710Z,1.13
2022-09-21T13:26:35.888Z,1.25
2022-09-21T13:29:06.799Z,1.10
2022-09-21T13:31:51.965Z,1.20
2022-09-21T13:34:32.875Z,1.30
2022-09-21T13:37:11.777Z,1.10
2022-09-21T13:39:50.520Z,1.10
2022-09-21T13:42:35.231Z,1.00
2022-09-21T13:45:24.044Z,1.17
2022-09-21T13:48:00.214Z,0.98
2022-09-21T13:50:42.664Z,1.00
2022-09-21T13:53:19.750Z,1.00
2022-09-21T13:56:01.516Z,1.10
2022-09-21T13:58:41.067Z,1.10
2022-09-21T14:01:42.482Z,1.17
2022-09-21T14:04:15.487Z,0.98
2022-09-21T14:06:48.688Z,1.30
2022-09-21T14:12:06.467Z,1.08
2022-09-21T14:17:35.886Z,0.88
2022-09-21T14:20:05.944Z,1.13
2022-09-21T14:22:33.515Z,1.30
2022-09-21T14:25:30.135Z,1.00
2022-09-21T14:28:00.770Z,0.85
2022-09-21T14:30:33.500Z,1.00
2022-09-21T14:33:00.084Z,0.77
2022-09-21T14:35:33.708Z,1.10
2022-09-21T14:38:17.755Z,0.93
2022-09-21T14:40:50.575Z,1.00
2022-09-21T14:43:38.963Z,0.85
2022-09-21T14:46:20.740Z,0.80
2022-09-21T14:49:04.790Z,1.00
2022-09-21T14:52:13.368Z,1.00
2022-09-21T14:55:24.919Z,0.80
2022-09-21T14:58:19.469Z,0.80
2022-09-21T15:00:49.962Z,0.88
2022-09-21T15:03:22.322Z,0.73
2022-09-21T15:06:38.035Z,0.67
2022-09-21T15:09:44.888Z,0.90
2022-09-21T15:12:22.666Z,0.77
2022-09-21T15:15:32.448Z,0.70
2022-09-21T15:18:01.957Z,0.85
2022-09-21T15:20:32.361Z,0.60
2022-09-21T15:23:00.535Z,0.70
2022-09-21T15:25:32.101Z,0.82
2022-09-21T15:28:00.178Z,0.80
2022-09-21T15:30:29.388Z,0.70
2022-09-21T15:33:01.034Z,0.75
2022-09-21T15:35:30.999Z,0.80
2022-09-21T15:38:01.737Z,0.70
2022-09-21T15:40:31.881Z,0.93
2022-09-21T15:43:06.544Z,0.85
2022-09-21T15:45:37.474Z,0.88
2022-09-21T15:48:13.547Z,0.93
2022-09-21T15:50:43.206Z,0.90
2022-09-21T15:53:21.841Z,0.70
2022-09-21T15:55:49.670Z,0.90
2022-09-21T15:58:37.294Z,0.57
2022-09-21T16:01:16.192Z,0.90
2022-09-21T16:03:43.846Z,0.80
2022-09-21T16:06:36.107Z,0.70
2022-09-21T16:09:39.778Z,0.68
2022-09-21T16:12:34.133Z,0.80
2022-09-21T16:15:05.355Z,0.90
2022-09-21T16:17:38.887Z,1.00
2022-09-21T16:20:23.556Z,1.23
2022-09-21T16:22:54.916Z,1.00
2022-09-21T16:25:37.091Z,0.75
2022-09-21T16:28:11.580Z,0.70
2022-09-21T16:30:47.321Z,0.80
2022-09-21T16:33:32.642Z,1.00
2022-09-21T16:36:04.063Z,1.10
2022-09-21T16:38:32.847Z,0.80
2022-09-21T16:41:01.595Z,1.20
2022-09-21T16:43:28.277Z,0.90
2022-09-21T16:45:55.500Z,1.00
2022-09-21T16:48:22.064Z,0.90
2022-09-21T16:50:51.927Z,1.00
2022-09-21T16:53:20.559Z,1.25
2022-09-21T16:55:48.264Z,1.08
2022-09-21T16:58:14.939Z,1.00
2022-09-21T17:00:43.239Z,1.00
2022-09-21T17:03:10.005Z,1.10
2022-09-21T17:05:36.650Z,1.65
2022-09-21T17:08:03.431Z,1.15
2022-09-21T17:10:36.743Z,1.42
2022-09-21T17:13:06.307Z,1.27
2022-09-21T17:15:33.859Z,1.10
2022-09-21T17:18:00.485Z,0.95
2022-09-21T17:20:36.193Z,1.00
2022-09-21T17:23:03.285Z,1.27
2022-09-21T17:25:33.294Z,1.40
2022-09-21T17:28:01.003Z,1.63
2022-09-21T17:30:28.623Z,3.28
2022-09-21T17:32:56.820Z,4.20
2022-09-21T17:35:56.632Z,2.78
2022-09-21T17:38:23.383Z,2.63
2022-09-21T17:40:50.701Z,2.60
2022-09-21T17:43:29.348Z,2.15
2022-09-21T17:46:11.661Z,2.45
2022-09-21T17:48:40.315Z,2.40
2022-09-21T17:51:07.673Z,3.03
2022-09-21T17:53:35.137Z,2.95
2022-09-21T17:56:29.424Z,3.13
2022-09-21T17:59:01.743Z,2.90
2022-09-21T18:01:33.875Z,4.00
2022-09-21T18:04:00.998Z,3.13
2022-09-21T18:06:28.886Z,3.08
2022-09-21T18:08:56.322Z,2.97
2022-09-21T18:11:55.712Z,3.80
2022-09-21T18:14:28.070Z,6.15
2022-09-21T18:17:20.762Z,5.90
2022-09-21T18:20:02.690Z,3.00
2022-09-21T18:22:39.159Z,2.60
2022-09-21T18:25:15.870Z,2.33
2022-09-21T18:27:45.199Z,3.15
2022-09-21T18:30:12.263Z,3.65
2022-09-21T18:33:18.647Z,3.63
2022-09-21T18:36:08.040Z,4.90
2022-09-21T18:38:44.035Z,5.93
2022-09-21T18:41:32.998Z,6.50
2022-09-21T18:44:26.030Z,3.85
2022-09-21T18:47:09.817Z,2.33
2022-09-21T18:49:57.811Z,2.22
2022-09-21T18:52:27.372Z,2.70
2022-09-21T18:54:54.138Z,2.40
2022-09-21T18:57:23.453Z,2.40
2022-09-21T18:59:50.454Z,2.03
2022-09-21T19:02:20.164Z,2.20
2022-09-21T19:04:47.299Z,2.40
2022-09-21T19:07:29.314Z,2.30
2022-09-21T19:10:06.362Z,2.20
2022-09-21T19:13:05.922Z,2.33
2022-09-21T19:15:59.084Z,2.58
2022-09-21T19:18:44.058Z,2.28
2022-09-21T19:21:52.592Z,2.30
2022-09-21T19:24:45.483Z,2.42
2022-09-21T19:27:22.556Z,2.23
2022-09-21T19:29:51.911Z,2.22
2022-09-21T19:32:31.198Z,2.08
2022-09-21T19:35:01.759Z,2.65
2022-09-21T19:37:28.461Z,2.65
2022-09-21T19:39:55.205Z,2.25
2022-09-21T19:42:50.417Z,2.33
2022-09-21T19:45:27.330Z,2.15
2022-09-21T19:47:58.957Z,2.80
2022-09-21T19:50:40.904Z,2.50
2022-09-21T19:53:29.591Z,2.63
2022-09-21T19:56:16.705Z,2.55
2022-09-21T19:59:02.084Z,2.03
2022-09-21T20:01:29.000Z,2.72
2022-09-21T20:03:56.100Z,4.35
2022-09-21T20:06:36.971Z,4.32
2022-09-21T20:09:29.214Z,3.90
2022-09-21T20:12:24.503Z,3.85
2022-09-21T20:15:46.475Z,3.47
2022-09-21T20:18:38.948Z,3.40
2022-09-21T20:21:12.743Z,3.30
2022-09-21T20:23:39.727Z,3.00
2022-09-21T20:26:22.108Z,3.15
2022-09-21T20:28:50.184Z,3.00
2022-09-21T20:31:16.799Z,2.65
2022-09-21T20:33:43.415Z,2.88
2022-09-21T20:36:10.102Z,2.20
2022-09-21T20:38:37.326Z,2.38
2022-09-21T20:41:04.967Z,2.53
2022-09-21T20:43:32.875Z,1.80
2022-09-21T20:46:00.169Z,2.40
2022-09-21T20:48:26.851Z,1.90
2022-09-21T20:50:54.158Z,2.10
2022-09-21T20:53:20.898Z,2.42
2022-09-21T20:55:55.624Z,2.17
2022-09-21T20:58:22.488Z,2.53
2022-09-21T21:00:50.061Z,2.00
2022-09-21T21:03:17.260Z,2.17
2022-09-21T21:05:43.863Z,2.20
2022-09-21T21:08:10.514Z,1.98
2022-09-21T21:10:37.491Z,2.10
2022-09-21T21:13:05.049Z,2.05
2022-09-21T21:15:32.139Z,2.10
2022-09-21T21:17:58.786Z,1.98
2022-09-21T21:20:26.167Z,1.58
2022-09-21T21:22:53.791Z,2.25
2022-09-21T21:25:20.658Z,2.17
2022-09-21T21:27:47.304Z,2.30
2022-09-21T21:30:14.258Z,2.10
2022-09-21T21:32:42.776Z,2.00
2022-09-21T21:35:09.614Z,1.92
2022-09-21T21:37:36.276Z,2.17
2022-09-21T21:40:03.448Z,2.08
2022-09-21T21:42:30.155Z,2.15
2022-09-21T21:44:56.832Z,2.00
2022-09-21T21:47:40.649Z,2.05
2022-09-21T21:50:08.531Z,2.30
2022-09-21T21:52:35.142Z,2.10
2022-09-21T21:55:02.446Z,2.00
2022-09-21T21:57:29.157Z,1.95
2022-09-21T21:59:55.722Z,1.75
2022-09-21T22:02:22.429Z,1.85
2022-09-21T22:04:49.118Z,2.28
2022-09-21T22:07:15.697Z,2.08
2022-09-21T22:09:42.265Z,1.90
2022-09-21T22:12:09.648Z,1.95
2022-09-21T22:14:36.207Z,1.80
2022-09-21T22:17:03.251Z,2.10
2022-09-21T22:19:29.809Z,1.75
2022-09-21T22:21:56.415Z,2.00
2022-09-21T22:24:23.823Z,1.95
2022-09-21T22:26:50.662Z,1.80
2022-09-21T22:29:17.549Z,2.00
2022-09-21T22:31:46.953Z,1.98
2022-09-21T22:34:14.817Z,1.70
2022-09-21T22:36:43.611Z,1.52
2022-09-21T22:39:11.154Z,1.83
2022-09-21T22:41:40.105Z,1.80
2022-09-21T22:44:08.073Z,2.00
2022-09-21T22:46:35.147Z,1.42
2022-09-21T22:49:02.302Z,1.70
2022-09-21T22:51:29.589Z,1.73
2022-09-21T22:53:56.847Z,1.83
2022-09-21T22:56:26.515Z,1.80
2022-09-21T22:58:55.251Z,1.60
2022-09-21T23:01:25.522Z,1.83
2022-09-21T23:04:04.634Z,1.60
2022-09-21T23:06:33.892Z,1.80
2022-09-21T23:09:02.297Z,1.65
2022-09-21T23:11:33.432Z,1.63
2022-09-21T23:14:00.378Z,1.73
2022-09-21T23:16:28.363Z,1.90
2022-09-21T23:18:56.011Z,1.50
2022-09-21T23:21:24.810Z,1.42
2022-09-21T23:23:56.486Z,1.40
2022-09-21T23:26:24.444Z,1.80
2022-09-21T23:28:54.471Z,1.67
2022-09-21T23:31:22.011Z,1.45
2022-09-21T23:33:51.630Z,1.60
2022-09-21T23:36:21.319Z,1.77
2022-09-21T23:38:49.274Z,1.40
2022-09-21T23:41:21.559Z,1.48
2022-09-21T23:43:48.920Z,1.63
2022-09-21T23:46:18.618Z,1.80
2022-09-21T23:48:46.320Z,1.67
2022-09-21T23:51:13.307Z,1.90
2022-09-21T23:53:40.286Z,1.67
2022-09-21T23:56:08.307Z,1.50
2022-09-21T23:58:35.311Z,1.95
